Hollywood, FL

3:11 PM EDT on September 04, 2015 (GMT -0400)
Hollywood Marina | | Change Station
CLOSE
Current Station
Personal Weather Station
Location: Hollywood, FL
Elevation: 2 ft
Nearby Weather Stations

Elev 2 ft 26.01 °N, 80.12 °W | Updated 1 second ago

Overcast
Overcast
86.8 °F
Feels Like 101 °F
N
8.0
Wind Variable Wind from South
Gusts 10.0 mph

Today
High -- | Low -- °F
--% Chance of Precip.
Yesterday
High -- | Low -- °F
Precip. -- in
7:01 AM 7:36 PM
Waning Gibbous, 57% visible
Pressure 29.94 in
Visibility 10.0 miles
Clouds Mostly Cloudy 4000 ft
Mostly Cloudy 5500 ft
Mostly Cloudy 7500 ft
Mostly Cloudy 25000 ft
Heat Index 101 °F
Dew Point 79 °F
Humidity 77%
Rainfall 0.00 in
Snow Depth Not available.
UV 7 out of 12
Pollen 3.50 out of 12
Air Quality Not available.
Flu Activity Not available.
METAR KFLL 041853Z 12008KT 10SM BKN040TCU BKN055 BKN075 BKN250 31/27 A2994 RMK AO2 RAB24E41 TSB1759E25 SLP137 TCU S P0001 T03110267
Pressure 29.94 in
Visibility 10.0 miles
Clouds Mostly Cloudy 4000 ft
Mostly Cloudy 5500 ft
Mostly Cloudy 7500 ft
Mostly Cloudy 25000 ft
Heat Index 101 °F
Dew Point 79 °F
Humidity 77%
Rainfall 0.00 in
Snow Depth Not available.
UV 7 out of 12
Pollen 3.50 out of 12
Air Quality Not available.
Flu Activity Not available.
METAR KFLL 041853Z 12008KT 10SM BKN040TCU BKN055 BKN075 BKN250 31/27 A2994 RMK AO2 RAB24E41 TSB1759E25 SLP137 TCU S P0001 T03110267
Nowcast | as of 1:15 PM EDT on September 4, 2015

Through the afternoon hours...showers and thunderstorms will continue to develop over the interior areas of South Florida and move to the southeast into the East Coast Metro areas of South Florida. Any storms that do move through will be capable of producing lightning strikes...gusty winds...and heavy rainfall. If you see lightning or hear thunder move inside until the storms have passed by.

×

10-Day Weather Forecast

×

Almanac

Astronomy

Sep. 04, 2015 Rise Set
Actual Time
Civil Twilight
Nautical Twilight
Astronomical Twilight
Moon
Length of Visible Light
Length of Day
Tomorrow will be .
, % of the Moon is Illuminated

Today's Extremes

State Highs State Lows

Community

WunderPhotos

Upload Photos

1,852,271 photos uploaded!

WunderBlogs® & News

Nearby

Air Quality

  Air Quality AQ Index Pollutant
Not available.

Snow Depth

Station Depth Elevation

Earthquake Activity

City Distance Mag. Time & Date
Minimum magnitude displayed is 2.5.

Coastal Water Temperatures

Place Temperature

Stations

Nearby Weather Stations

Station Location Temp. Windchill Dew Point Humidity Wind Precip. Elev Updated Type